sensor_id;sensor_type;location;lat;lon;timestamp;P1;durP1;ratioP1;P2;durP2;ratioP2
34914;SDS011;21125;48.630;9.276;2022-07-29T00:01:47;23.75;;;21.05;;
34914;SDS011;21125;48.630;9.276;2022-07-29T00:04:13;22.88;;;20.67;;
34914;SDS011;21125;48.630;9.276;2022-07-29T00:06:39;21.42;;;19.40;;
34914;SDS011;21125;48.630;9.276;2022-07-29T00:09:05;20.98;;;18.90;;
34914;SDS011;21125;48.630;9.276;2022-07-29T00:11:31;23.63;;;21.33;;
34914;SDS011;21125;48.630;9.276;2022-07-29T00:13:57;27.55;;;24.70;;
34914;SDS011;21125;48.630;9.276;2022-07-29T00:16:23;25.38;;;23.08;;
34914;SDS011;21125;48.630;9.276;2022-07-29T00:18:49;26.42;;;23.88;;
34914;SDS011;21125;48.630;9.276;2022-07-29T00:21:15;24.02;;;21.63;;
34914;SDS011;21125;48.630;9.276;2022-07-29T00:23:41;26.80;;;22.67;;
34914;SDS011;21125;48.630;9.276;2022-07-29T00:26:07;21.38;;;19.52;;
34914;SDS011;21125;48.630;9.276;2022-07-29T00:28:33;22.35;;;20.35;;
34914;SDS011;21125;48.630;9.276;2022-07-29T00:30:59;21.70;;;19.13;;
34914;SDS011;21125;48.630;9.276;2022-07-29T00:33:25;19.13;;;17.23;;
34914;SDS011;21125;48.630;9.276;2022-07-29T00:35:51;20.80;;;18.20;;
34914;SDS011;21125;48.630;9.276;2022-07-29T00:38:18;20.48;;;18.65;;
34914;SDS011;21125;48.630;9.276;2022-07-29T00:40:45;22.67;;;20.58;;
34914;SDS011;21125;48.630;9.276;2022-07-29T00:43:11;19.20;;;17.67;;
34914;SDS011;21125;48.630;9.276;2022-07-29T00:45:38;21.00;;;18.90;;
34914;SDS011;21125;48.630;9.276;2022-07-29T00:48:04;23.00;;;20.92;;
34914;SDS011;21125;48.630;9.276;2022-07-29T00:50:31;21.08;;;19.17;;
34914;SDS011;21125;48.630;9.276;2022-07-29T00:52:58;23.10;;;20.25;;
34914;SDS011;21125;48.630;9.276;2022-07-29T00:55:24;22.63;;;20.63;;
34914;SDS011;21125;48.630;9.276;2022-07-29T00:57:50;23.60;;;21.35;;
34914;SDS011;21125;48.630;9.276;2022-07-29T01:00:20;23.60;;;20.98;;
34914;SDS011;21125;48.630;9.276;2022-07-29T01:02:47;24.20;;;21.38;;
34914;SDS011;21125;48.630;9.276;2022-07-29T01:05:13;22.90;;;20.60;;
34914;SDS011;21125;48.630;9.276;2022-07-29T01:07:40;21.98;;;19.85;;
34914;SDS011;21125;48.630;9.276;2022-07-29T01:10:07;20.48;;;18.77;;
34914;SDS011;21125;48.630;9.276;2022-07-29T01:12:35;22.50;;;20.02;;
34914;SDS011;21125;48.630;9.276;2022-07-29T01:15:03;24.85;;;22.17;;
34914;SDS011;21125;48.630;9.276;2022-07-29T01:17:32;23.98;;;21.50;;
34914;SDS011;21125;48.630;9.276;2022-07-29T01:30:15;23.10;;;20.83;;
34914;SDS011;21125;48.630;9.276;2022-07-29T01:32:41;25.20;;;22.80;;
34914;SDS011;21125;48.630;9.276;2022-07-29T01:35:19;24.58;;;22.08;;
34914;SDS011;21125;48.630;9.276;2022-07-29T01:37:47;23.08;;;20.77;;
34914;SDS011;21125;48.630;9.276;2022-07-29T01:40:19;23.02;;;20.83;;
34914;SDS011;21125;48.630;9.276;2022-07-29T01:42:49;22.67;;;20.67;;
34914;SDS011;21125;48.630;9.276;2022-07-29T01:45:20;22.55;;;20.33;;
34914;SDS011;21125;48.630;9.276;2022-07-29T01:50:23;27.55;;;21.52;;
34914;SDS011;21125;48.630;9.276;2022-07-29T01:52:56;24.63;;;20.17;;
34914;SDS011;21125;48.630;9.276;2022-07-29T01:55:24;22.55;;;20.52;;
34914;SDS011;21125;48.630;9.276;2022-07-29T01:57:51;29.63;;;21.23;;
34914;SDS011;21125;48.630;9.276;2022-07-29T02:00:17;23.38;;;21.15;;
34914;SDS011;21125;48.630;9.276;2022-07-29T02:02:44;36.65;;;22.90;;
34914;SDS011;21125;48.630;9.276;2022-07-29T02:05:12;20.40;;;18.30;;
34914;SDS011;21125;48.630;9.276;2022-07-29T02:07:42;18.80;;;16.95;;
34914;SDS011;21125;48.630;9.276;2022-07-29T02:10:09;20.60;;;18.70;;
34914;SDS011;21125;48.630;9.276;2022-07-29T02:12:36;19.77;;;17.75;;
34914;SDS011;21125;48.630;9.276;2022-07-29T02:15:03;19.50;;;17.40;;
34914;SDS011;21125;48.630;9.276;2022-07-29T02:17:35;19.67;;;17.95;;
34914;SDS011;21125;48.630;9.276;2022-07-29T02:20:04;18.50;;;16.75;;
34914;SDS011;21125;48.630;9.276;2022-07-29T02:22:31;17.90;;;16.20;;
34914;SDS011;21125;48.630;9.276;2022-07-29T02:24:59;28.95;;;19.77;;
34914;SDS011;21125;48.630;9.276;2022-07-29T02:27:26;23.50;;;18.67;;
34914;SDS011;21125;48.630;9.276;2022-07-29T02:29:53;20.65;;;18.52;;
34914;SDS011;21125;48.630;9.276;2022-07-29T02:32:20;18.45;;;16.67;;
34914;SDS011;21125;48.630;9.276;2022-07-29T02:34:46;19.27;;;17.30;;
34914;SDS011;21125;48.630;9.276;2022-07-29T02:37:13;20.95;;;18.63;;
34914;SDS011;21125;48.630;9.276;2022-07-29T02:39:40;32.30;;;20.40;;
34914;SDS011;21125;48.630;9.276;2022-07-29T02:42:08;21.95;;;19.75;;
34914;SDS011;21125;48.630;9.276;2022-07-29T02:44:35;29.50;;;21.85;;
34914;SDS011;21125;48.630;9.276;2022-07-29T02:47:04;23.17;;;18.65;;
34914;SDS011;21125;48.630;9.276;2022-07-29T02:51:58;22.08;;;17.95;;
34914;SDS011;21125;48.630;9.276;2022-07-29T02:54:27;17.63;;;15.48;;
34914;SDS011;21125;48.630;9.276;2022-07-29T02:56:55;16.48;;;14.85;;
34914;SDS011;21125;48.630;9.276;2022-07-29T02:59:25;18.08;;;16.25;;
34914;SDS011;21125;48.630;9.276;2022-07-29T03:01:52;17.60;;;16.00;;
34914;SDS011;21125;48.630;9.276;2022-07-29T03:04:19;18.42;;;16.75;;
34914;SDS011;21125;48.630;9.276;2022-07-29T03:06:46;23.00;;;16.98;;
34914;SDS011;21125;48.630;9.276;2022-07-29T03:09:12;17.60;;;15.75;;
34914;SDS011;21125;48.630;9.276;2022-07-29T03:11:39;18.05;;;16.23;;
34914;SDS011;21125;48.630;9.276;2022-07-29T03:14:06;17.55;;;15.85;;
34914;SDS011;21125;48.630;9.276;2022-07-29T03:16:33;16.80;;;14.90;;
34914;SDS011;21125;48.630;9.276;2022-07-29T03:19:01;18.25;;;14.10;;
34914;SDS011;21125;48.630;9.276;2022-07-29T03:21:27;18.17;;;15.38;;
34914;SDS011;21125;48.630;9.276;2022-07-29T03:23:53;16.50;;;14.98;;
34914;SDS011;21125;48.630;9.276;2022-07-29T03:26:19;16.38;;;14.82;;
34914;SDS011;21125;48.630;9.276;2022-07-29T03:28:45;15.57;;;14.20;;
34914;SDS011;21125;48.630;9.276;2022-07-29T03:31:11;16.92;;;15.32;;
34914;SDS011;21125;48.630;9.276;2022-07-29T03:33:37;16.58;;;15.00;;
34914;SDS011;21125;48.630;9.276;2022-07-29T03:36:03;14.52;;;13.20;;
34914;SDS011;21125;48.630;9.276;2022-07-29T03:38:30;14.32;;;13.07;;
34914;SDS011;21125;48.630;9.276;2022-07-29T03:40:58;15.65;;;14.20;;
34914;SDS011;21125;48.630;9.276;2022-07-29T03:43:26;16.23;;;14.27;;
34914;SDS011;21125;48.630;9.276;2022-07-29T03:45:56;13.80;;;12.60;;
34914;SDS011;21125;48.630;9.276;2022-07-29T03:48:23;13.50;;;12.30;;
34914;SDS011;21125;48.630;9.276;2022-07-29T03:50:49;13.02;;;12.02;;
34914;SDS011;21125;48.630;9.276;2022-07-29T03:53:16;13.63;;;12.13;;
34914;SDS011;21125;48.630;9.276;2022-07-29T03:55:55;13.52;;;12.40;;
34914;SDS011;21125;48.630;9.276;2022-07-29T03:58:22;13.85;;;12.10;;
34914;SDS011;21125;48.630;9.276;2022-07-29T04:00:49;12.90;;;11.82;;
34914;SDS011;21125;48.630;9.276;2022-07-29T04:03:15;13.80;;;12.70;;
34914;SDS011;21125;48.630;9.276;2022-07-29T04:05:41;16.35;;;13.70;;
34914;SDS011;21125;48.630;9.276;2022-07-29T04:08:07;13.90;;;12.70;;
34914;SDS011;21125;48.630;9.276;2022-07-29T04:10:33;13.95;;;12.85;;
34914;SDS011;21125;48.630;9.276;2022-07-29T04:12:59;15.65;;;14.13;;
34914;SDS011;21125;48.630;9.276;2022-07-29T04:15:25;15.73;;;14.23;;
34914;SDS011;21125;48.630;9.276;2022-07-29T04:17:53;16.45;;;14.93;;
34914;SDS011;21125;48.630;9.276;2022-07-29T04:20:19;17.55;;;15.85;;
34914;SDS011;21125;48.630;9.276;2022-07-29T04:22:45;18.88;;;17.05;;
34914;SDS011;21125;48.630;9.276;2022-07-29T04:25:11;21.52;;;19.33;;
34914;SDS011;21125;48.630;9.276;2022-07-29T04:27:37;19.48;;;17.50;;
34914;SDS011;21125;48.630;9.276;2022-07-29T04:30:23;18.48;;;16.65;;
34914;SDS011;21125;48.630;9.276;2022-07-29T04:32:49;17.90;;;16.33;;
34914;SDS011;21125;48.630;9.276;2022-07-29T04:35:15;16.52;;;15.00;;
34914;SDS011;21125;48.630;9.276;2022-07-29T04:37:41;18.08;;;16.27;;
34914;SDS011;21125;48.630;9.276;2022-07-29T04:40:07;19.52;;;16.35;;
34914;SDS011;21125;48.630;9.276;2022-07-29T04:42:33;16.95;;;15.30;;
34914;SDS011;21125;48.630;9.276;2022-07-29T04:44:59;18.50;;;16.85;;
34914;SDS011;21125;48.630;9.276;2022-07-29T04:47:25;19.45;;;17.45;;
34914;SDS011;21125;48.630;9.276;2022-07-29T04:49:51;18.00;;;16.33;;
34914;SDS011;21125;48.630;9.276;2022-07-29T04:52:17;19.83;;;18.02;;
34914;SDS011;21125;48.630;9.276;2022-07-29T04:54:43;19.75;;;17.95;;
34914;SDS011;21125;48.630;9.276;2022-07-29T04:57:09;17.98;;;16.27;;
34914;SDS011;21125;48.630;9.276;2022-07-29T04:59:35;18.27;;;16.55;;
34914;SDS011;21125;48.630;9.276;2022-07-29T05:02:01;19.10;;;17.30;;
34914;SDS011;21125;48.630;9.276;2022-07-29T05:04:27;18.55;;;16.75;;
34914;SDS011;21125;48.630;9.276;2022-07-29T05:06:53;16.65;;;14.90;;
34914;SDS011;21125;48.630;9.276;2022-07-29T05:09:19;13.85;;;12.75;;
34914;SDS011;21125;48.630;9.276;2022-07-29T05:11:45;13.85;;;12.85;;
34914;SDS011;21125;48.630;9.276;2022-07-29T05:14:11;12.95;;;11.95;;
34914;SDS011;21125;48.630;9.276;2022-07-29T05:16:37;13.98;;;12.77;;
34914;SDS011;21125;48.630;9.276;2022-07-29T05:19:04;12.30;;;11.25;;
34914;SDS011;21125;48.630;9.276;2022-07-29T05:21:30;10.82;;;9.90;;
34914;SDS011;21125;48.630;9.276;2022-07-29T05:23:56;9.30;;;8.52;;
34914;SDS011;21125;48.630;9.276;2022-07-29T05:26:23;7.55;;;6.85;;
34914;SDS011;21125;48.630;9.276;2022-07-29T05:28:49;7.18;;;6.57;;
34914;SDS011;21125;48.630;9.276;2022-07-29T05:31:14;6.35;;;5.75;;
34914;SDS011;21125;48.630;9.276;2022-07-29T05:33:41;6.47;;;5.32;;
34914;SDS011;21125;48.630;9.276;2022-07-29T05:36:07;6.72;;;6.10;;
34914;SDS011;21125;48.630;9.276;2022-07-29T05:38:36;5.80;;;5.30;;
34914;SDS011;21125;48.630;9.276;2022-07-29T05:41:02;6.35;;;5.75;;
34914;SDS011;21125;48.630;9.276;2022-07-29T05:43:28;10.50;;;6.50;;
34914;SDS011;21125;48.630;9.276;2022-07-29T05:45:54;5.60;;;5.00;;
34914;SDS011;21125;48.630;9.276;2022-07-29T05:48:21;6.18;;;5.60;;
34914;SDS011;21125;48.630;9.276;2022-07-29T05:50:47;6.32;;;5.82;;
34914;SDS011;21125;48.630;9.276;2022-07-29T05:53:13;5.53;;;5.03;;
34914;SDS011;21125;48.630;9.276;2022-07-29T05:55:39;5.88;;;5.47;;
34914;SDS011;21125;48.630;9.276;2022-07-29T05:58:05;7.10;;;5.40;;
34914;SDS011;21125;48.630;9.276;2022-07-29T06:00:30;6.13;;;5.53;;
34914;SDS011;21125;48.630;9.276;2022-07-29T06:02:56;9.25;;;5.50;;
34914;SDS011;21125;48.630;9.276;2022-07-29T06:05:22;4.65;;;4.30;;
34914;SDS011;21125;48.630;9.276;2022-07-29T06:07:48;6.05;;;4.88;;
34914;SDS011;21125;48.630;9.276;2022-07-29T06:10:14;4.28;;;3.88;;
34914;SDS011;21125;48.630;9.276;2022-07-29T06:12:40;4.80;;;4.40;;
34914;SDS011;21125;48.630;9.276;2022-07-29T06:15:06;5.38;;;4.93;;
34914;SDS011;21125;48.630;9.276;2022-07-29T06:17:33;6.72;;;4.68;;
34914;SDS011;21125;48.630;9.276;2022-07-29T06:19:58;6.82;;;5.88;;
34914;SDS011;21125;48.630;9.276;2022-07-29T06:22:24;7.03;;;5.30;;
34914;SDS011;21125;48.630;9.276;2022-07-29T06:24:50;6.00;;;5.60;;
34914;SDS011;21125;48.630;9.276;2022-07-29T06:27:16;4.20;;;3.90;;
34914;SDS011;21125;48.630;9.276;2022-07-29T06:29:42;4.45;;;4.15;;
34914;SDS011;21125;48.630;9.276;2022-07-29T06:32:08;6.13;;;4.07;;
34914;SDS011;21125;48.630;9.276;2022-07-29T06:34:35;4.90;;;4.05;;
34914;SDS011;21125;48.630;9.276;2022-07-29T06:37:05;4.28;;;3.95;;
34914;SDS011;21125;48.630;9.276;2022-07-29T06:39:31;3.58;;;3.38;;
34914;SDS011;21125;48.630;9.276;2022-07-29T06:41:57;3.75;;;3.42;;
34914;SDS011;21125;48.630;9.276;2022-07-29T06:44:23;2.92;;;2.75;;
34914;SDS011;21125;48.630;9.276;2022-07-29T06:46:49;3.85;;;3.08;;
34914;SDS011;21125;48.630;9.276;2022-07-29T06:49:16;4.32;;;3.45;;
34914;SDS011;21125;48.630;9.276;2022-07-29T06:51:42;3.88;;;3.58;;
34914;SDS011;21125;48.630;9.276;2022-07-29T06:54:08;3.88;;;3.10;;
34914;SDS011;21125;48.630;9.276;2022-07-29T06:56:34;3.38;;;3.08;;
34914;SDS011;21125;48.630;9.276;2022-07-29T06:59:02;2.97;;;2.50;;
34914;SDS011;21125;48.630;9.276;2022-07-29T07:01:28;3.15;;;2.83;;
34914;SDS011;21125;48.630;9.276;2022-07-29T07:03:54;3.10;;;2.90;;
34914;SDS011;21125;48.630;9.276;2022-07-29T07:06:21;2.67;;;2.47;;
34914;SDS011;21125;48.630;9.276;2022-07-29T07:08:46;4.18;;;2.90;;
34914;SDS011;21125;48.630;9.276;2022-07-29T07:11:12;2.80;;;2.60;;
34914;SDS011;21125;48.630;9.276;2022-07-29T07:13:38;3.22;;;3.03;;
34914;SDS011;21125;48.630;9.276;2022-07-29T07:16:04;4.05;;;3.65;;
34914;SDS011;21125;48.630;9.276;2022-07-29T07:18:30;3.20;;;2.90;;
34914;SDS011;21125;48.630;9.276;2022-07-29T07:20:57;4.05;;;2.90;;
34914;SDS011;21125;48.630;9.276;2022-07-29T07:23:23;3.22;;;3.03;;
34914;SDS011;21125;48.630;9.276;2022-07-29T07:25:49;3.47;;;3.17;;
34914;SDS011;21125;48.630;9.276;2022-07-29T07:28:16;3.30;;;2.38;;
34914;SDS011;21125;48.630;9.276;2022-07-29T07:30:42;2.47;;;2.30;;
34914;SDS011;21125;48.630;9.276;2022-07-29T07:33:08;2.80;;;2.60;;
34914;SDS011;21125;48.630;9.276;2022-07-29T07:35:34;3.15;;;2.72;;
34914;SDS011;21125;48.630;9.276;2022-07-29T07:38:00;3.05;;;2.78;;
34914;SDS011;21125;48.630;9.276;2022-07-29T07:40:26;3.55;;;3.00;;
34914;SDS011;21125;48.630;9.276;2022-07-29T07:42:52;4.22;;;2.67;;
34914;SDS011;21125;48.630;9.276;2022-07-29T07:45:18;3.53;;;2.33;;
34914;SDS011;21125;48.630;9.276;2022-07-29T07:47:44;4.20;;;2.70;;
34914;SDS011;21125;48.630;9.276;2022-07-29T07:50:11;3.03;;;2.78;;
34914;SDS011;21125;48.630;9.276;2022-07-29T07:52:50;3.80;;;3.13;;
34914;SDS011;21125;48.630;9.276;2022-07-29T07:55:17;4.22;;;2.83;;
34914;SDS011;21125;48.630;9.276;2022-07-29T07:57:43;2.75;;;2.55;;
34914;SDS011;21125;48.630;9.276;2022-07-29T08:00:09;4.47;;;2.90;;
34914;SDS011;21125;48.630;9.276;2022-07-29T08:02:36;2.78;;;2.58;;
34914;SDS011;21125;48.630;9.276;2022-07-29T08:05:02;2.50;;;2.30;;
34914;SDS011;21125;48.630;9.276;2022-07-29T08:07:29;3.22;;;2.63;;
34914;SDS011;21125;48.630;9.276;2022-07-29T08:09:54;3.42;;;3.10;;
34914;SDS011;21125;48.630;9.276;2022-07-29T08:12:20;3.25;;;2.88;;
34914;SDS011;21125;48.630;9.276;2022-07-29T08:14:46;3.40;;;3.10;;
34914;SDS011;21125;48.630;9.276;2022-07-29T08:17:12;3.13;;;2.88;;
34914;SDS011;21125;48.630;9.276;2022-07-29T08:19:38;4.13;;;2.80;;
34914;SDS011;21125;48.630;9.276;2022-07-29T08:22:04;3.00;;;2.70;;
34914;SDS011;21125;48.630;9.276;2022-07-29T08:24:30;3.08;;;2.63;;
34914;SDS011;21125;48.630;9.276;2022-07-29T08:27:09;4.15;;;2.97;;
34914;SDS011;21125;48.630;9.276;2022-07-29T08:29:35;4.53;;;2.92;;
34914;SDS011;21125;48.630;9.276;2022-07-29T08:32:02;2.90;;;2.70;;
34914;SDS011;21125;48.630;9.276;2022-07-29T08:34:28;4.53;;;2.80;;
34914;SDS011;21125;48.630;9.276;2022-07-29T08:36:54;3.85;;;2.88;;
34914;SDS011;21125;48.630;9.276;2022-07-29T08:39:21;4.78;;;3.10;;
34914;SDS011;21125;48.630;9.276;2022-07-29T08:41:47;3.10;;;2.80;;
34914;SDS011;21125;48.630;9.276;2022-07-29T08:44:15;3.05;;;2.63;;
34914;SDS011;21125;48.630;9.276;2022-07-29T08:46:42;4.30;;;3.00;;
34914;SDS011;21125;48.630;9.276;2022-07-29T08:49:08;3.05;;;2.85;;
34914;SDS011;21125;48.630;9.276;2022-07-29T08:51:34;3.92;;;3.60;;
34914;SDS011;21125;48.630;9.276;2022-07-29T08:54:02;5.45;;;2.72;;
34914;SDS011;21125;48.630;9.276;2022-07-29T08:56:28;3.13;;;2.92;;
34914;SDS011;21125;48.630;9.276;2022-07-29T08:58:54;3.20;;;2.90;;
34914;SDS011;21125;48.630;9.276;2022-07-29T09:01:23;3.85;;;2.97;;
34914;SDS011;21125;48.630;9.276;2022-07-29T09:03:49;3.42;;;3.05;;
34914;SDS011;21125;48.630;9.276;2022-07-29T09:06:20;3.53;;;2.78;;
34914;SDS011;21125;48.630;9.276;2022-07-29T09:08:47;4.95;;;3.30;;
34914;SDS011;21125;48.630;9.276;2022-07-29T09:11:13;4.70;;;2.97;;
34914;SDS011;21125;48.630;9.276;2022-07-29T09:13:40;3.67;;;3.03;;
34914;SDS011;21125;48.630;9.276;2022-07-29T09:16:06;4.57;;;3.25;;
34914;SDS011;21125;48.630;9.276;2022-07-29T09:18:36;31.33;;;3.95;;
34914;SDS011;21125;48.630;9.276;2022-07-29T09:21:03;8.70;;;3.40;;
34914;SDS011;21125;48.630;9.276;2022-07-29T09:24:09;5.25;;;3.60;;
34914;SDS011;21125;48.630;9.276;2022-07-29T09:26:35;3.83;;;3.53;;
34914;SDS011;21125;48.630;9.276;2022-07-29T09:29:07;5.78;;;3.20;;
34914;SDS011;21125;48.630;9.276;2022-07-29T09:31:34;4.07;;;3.72;;
34914;SDS011;21125;48.630;9.276;2022-07-29T09:34:00;3.22;;;2.90;;
34914;SDS011;21125;48.630;9.276;2022-07-29T09:36:26;5.38;;;3.28;;
34914;SDS011;21125;48.630;9.276;2022-07-29T09:38:58;3.92;;;2.88;;
34914;SDS011;21125;48.630;9.276;2022-07-29T09:41:25;4.18;;;3.65;;
34914;SDS011;21125;48.630;9.276;2022-07-29T09:43:58;5.35;;;3.30;;
34914;SDS011;21125;48.630;9.276;2022-07-29T09:46:24;4.32;;;3.58;;
34914;SDS011;21125;48.630;9.276;2022-07-29T09:49:06;4.28;;;3.70;;
34914;SDS011;21125;48.630;9.276;2022-07-29T09:51:33;3.85;;;3.55;;
34914;SDS011;21125;48.630;9.276;2022-07-29T09:53:59;4.30;;;3.80;;
34914;SDS011;21125;48.630;9.276;2022-07-29T09:56:38;6.72;;;3.80;;
34914;SDS011;21125;48.630;9.276;2022-07-29T09:59:05;4.95;;;3.58;;
34914;SDS011;21125;48.630;9.276;2022-07-29T10:01:31;4.43;;;4.13;;
34914;SDS011;21125;48.630;9.276;2022-07-29T10:03:57;4.18;;;3.88;;
34914;SDS011;21125;48.630;9.276;2022-07-29T10:06:23;4.53;;;4.18;;
34914;SDS011;21125;48.630;9.276;2022-07-29T10:08:49;4.97;;;4.50;;
34914;SDS011;21125;48.630;9.276;2022-07-29T10:11:15;5.20;;;3.67;;
34914;SDS011;21125;48.630;9.276;2022-07-29T10:13:42;5.30;;;4.05;;
34914;SDS011;21125;48.630;9.276;2022-07-29T10:16:09;4.93;;;4.53;;
34914;SDS011;21125;48.630;9.276;2022-07-29T10:18:35;5.85;;;3.90;;
34914;SDS011;21125;48.630;9.276;2022-07-29T10:21:03;3.90;;;3.47;;
34914;SDS011;21125;48.630;9.276;2022-07-29T10:23:29;7.95;;;4.20;;
34914;SDS011;21125;48.630;9.276;2022-07-29T10:25:55;5.15;;;4.25;;
34914;SDS011;21125;48.630;9.276;2022-07-29T10:28:22;4.28;;;3.88;;
34914;SDS011;21125;48.630;9.276;2022-07-29T10:30:52;6.85;;;4.55;;
34914;SDS011;21125;48.630;9.276;2022-07-29T10:35:59;4.55;;;4.10;;
34914;SDS011;21125;48.630;9.276;2022-07-29T10:43:41;4.80;;;3.38;;
34914;SDS011;21125;48.630;9.276;2022-07-29T10:46:08;4.47;;;3.97;;
34914;SDS011;21125;48.630;9.276;2022-07-29T10:48:35;5.13;;;4.18;;
34914;SDS011;21125;48.630;9.276;2022-07-29T10:51:01;6.43;;;4.57;;
34914;SDS011;21125;48.630;9.276;2022-07-29T11:01:38;7.55;;;4.50;;
34914;SDS011;21125;48.630;9.276;2022-07-29T11:04:04;4.30;;;3.90;;
34914;SDS011;21125;48.630;9.276;2022-07-29T11:11:42;6.45;;;3.85;;
34914;SDS011;21125;48.630;9.276;2022-07-29T11:14:08;4.30;;;3.70;;
34914;SDS011;21125;48.630;9.276;2022-07-29T11:19:19;5.47;;;4.07;;
34914;SDS011;21125;48.630;9.276;2022-07-29T11:21:45;4.45;;;4.05;;
34914;SDS011;21125;48.630;9.276;2022-07-29T11:24:19;4.85;;;4.18;;
34914;SDS011;21125;48.630;9.276;2022-07-29T11:29:35;4.07;;;3.78;;
34914;SDS011;21125;48.630;9.276;2022-07-29T11:32:08;4.80;;;4.10;;
34914;SDS011;21125;48.630;9.276;2022-07-29T11:34:34;3.78;;;3.47;;
34914;SDS011;21125;48.630;9.276;2022-07-29T11:39:41;6.80;;;4.32;;
34914;SDS011;21125;48.630;9.276;2022-07-29T11:47:23;2.28;;;1.90;;
34914;SDS011;21125;48.630;9.276;2022-07-29T11:49:50;4.13;;;2.00;;
34914;SDS011;21125;48.630;9.276;2022-07-29T11:52:16;6.18;;;3.33;;
34914;SDS011;21125;48.630;9.276;2022-07-29T11:54:42;5.70;;;2.80;;
34914;SDS011;21125;48.630;9.276;2022-07-29T11:57:08;4.63;;;2.42;;
34914;SDS011;21125;48.630;9.276;2022-07-29T11:59:41;10.35;;;3.63;;
34914;SDS011;21125;48.630;9.276;2022-07-29T12:02:07;9.35;;;3.22;;
34914;SDS011;21125;48.630;9.276;2022-07-29T12:04:47;6.18;;;2.63;;
34914;SDS011;21125;48.630;9.276;2022-07-29T12:07:14;7.30;;;3.33;;
34914;SDS011;21125;48.630;9.276;2022-07-29T12:09:40;4.70;;;3.88;;
34914;SDS011;21125;48.630;9.276;2022-07-29T12:12:15;5.00;;;3.00;;
34914;SDS011;21125;48.630;9.276;2022-07-29T12:14:42;4.50;;;3.28;;
34914;SDS011;21125;48.630;9.276;2022-07-29T12:17:25;5.85;;;4.00;;
34914;SDS011;21125;48.630;9.276;2022-07-29T12:19:52;10.10;;;3.63;;
34914;SDS011;21125;48.630;9.276;2022-07-29T12:22:28;4.07;;;3.08;;
34914;SDS011;21125;48.630;9.276;2022-07-29T12:24:54;2.83;;;2.63;;
34914;SDS011;21125;48.630;9.276;2022-07-29T12:27:21;3.53;;;3.22;;
34914;SDS011;21125;48.630;9.276;2022-07-29T12:29:57;3.13;;;2.92;;
34914;SDS011;21125;48.630;9.276;2022-07-29T12:32:30;3.33;;;3.13;;
34914;SDS011;21125;48.630;9.276;2022-07-29T12:34:56;3.58;;;3.28;;
34914;SDS011;21125;48.630;9.276;2022-07-29T12:37:22;3.60;;;3.40;;
34914;SDS011;21125;48.630;9.276;2022-07-29T12:39:49;4.07;;;3.78;;
34914;SDS011;21125;48.630;9.276;2022-07-29T12:42:15;5.13;;;4.68;;
34914;SDS011;21125;48.630;9.276;2022-07-29T12:44:49;4.35;;;4.07;;
34914;SDS011;21125;48.630;9.276;2022-07-29T12:47:16;5.47;;;4.97;;
34914;SDS011;21125;48.630;9.276;2022-07-29T12:49:43;5.55;;;5.00;;
34914;SDS011;21125;48.630;9.276;2022-07-29T12:52:28;9.27;;;6.18;;
34914;SDS011;21125;48.630;9.276;2022-07-29T12:54:54;6.57;;;5.95;;
34914;SDS011;21125;48.630;9.276;2022-07-29T12:57:20;8.25;;;7.22;;
34914;SDS011;21125;48.630;9.276;2022-07-29T13:00:06;9.90;;;7.95;;
34914;SDS011;21125;48.630;9.276;2022-07-29T13:02:33;8.32;;;7.45;;
34914;SDS011;21125;48.630;9.276;2022-07-29T13:04:59;8.43;;;7.78;;
34914;SDS011;21125;48.630;9.276;2022-07-29T13:07:30;7.53;;;6.57;;
34914;SDS011;21125;48.630;9.276;2022-07-29T13:12:35;11.43;;;8.98;;
34914;SDS011;21125;48.630;9.276;2022-07-29T13:15:11;7.75;;;7.15;;
34914;SDS011;21125;48.630;9.276;2022-07-29T13:17:42;7.00;;;6.40;;
34914;SDS011;21125;48.630;9.276;2022-07-29T13:20:09;7.28;;;6.63;;
34914;SDS011;21125;48.630;9.276;2022-07-29T13:22:37;6.78;;;6.18;;
34914;SDS011;21125;48.630;9.276;2022-07-29T13:25:05;8.18;;;6.55;;
34914;SDS011;21125;48.630;9.276;2022-07-29T13:27:35;7.20;;;6.47;;
34914;SDS011;21125;48.630;9.276;2022-07-29T13:30:09;12.75;;;7.90;;
34914;SDS011;21125;48.630;9.276;2022-07-29T13:32:35;7.57;;;6.90;;
34914;SDS011;21125;48.630;9.276;2022-07-29T13:35:03;8.02;;;7.32;;
34914;SDS011;21125;48.630;9.276;2022-07-29T13:37:30;7.82;;;6.97;;
34914;SDS011;21125;48.630;9.276;2022-07-29T13:39:58;7.70;;;6.43;;
34914;SDS011;21125;48.630;9.276;2022-07-29T13:42:25;7.05;;;6.50;;
34914;SDS011;21125;48.630;9.276;2022-07-29T13:44:52;8.07;;;6.78;;
34914;SDS011;21125;48.630;9.276;2022-07-29T13:47:19;8.90;;;8.00;;
34914;SDS011;21125;48.630;9.276;2022-07-29T13:49:45;9.43;;;8.20;;
34914;SDS011;21125;48.630;9.276;2022-07-29T13:52:11;9.50;;;8.57;;
34914;SDS011;21125;48.630;9.276;2022-07-29T13:54:37;10.18;;;9.02;;
34914;SDS011;21125;48.630;9.276;2022-07-29T13:57:06;8.98;;;8.20;;
34914;SDS011;21125;48.630;9.276;2022-07-29T13:59:32;8.43;;;7.63;;
34914;SDS011;21125;48.630;9.276;2022-07-29T14:01:58;9.25;;;8.55;;
34914;SDS011;21125;48.630;9.276;2022-07-29T14:04:24;8.13;;;7.40;;
34914;SDS011;21125;48.630;9.276;2022-07-29T14:06:50;8.40;;;7.53;;
34914;SDS011;21125;48.630;9.276;2022-07-29T14:09:17;9.13;;;8.23;;
34914;SDS011;21125;48.630;9.276;2022-07-29T14:11:43;6.32;;;5.82;;
34914;SDS011;21125;48.630;9.276;2022-07-29T14:14:10;7.18;;;6.57;;
34914;SDS011;21125;48.630;9.276;2022-07-29T14:16:36;10.02;;;7.93;;
34914;SDS011;21125;48.630;9.276;2022-07-29T14:19:03;8.63;;;7.93;;
34914;SDS011;21125;48.630;9.276;2022-07-29T14:21:29;9.55;;;8.60;;
34914;SDS011;21125;48.630;9.276;2022-07-29T14:23:55;8.02;;;7.43;;
34914;SDS011;21125;48.630;9.276;2022-07-29T14:26:21;8.10;;;7.32;;
34914;SDS011;21125;48.630;9.276;2022-07-29T14:28:48;8.60;;;8.00;;
34914;SDS011;21125;48.630;9.276;2022-07-29T14:31:14;8.70;;;7.93;;
34914;SDS011;21125;48.630;9.276;2022-07-29T14:33:40;7.20;;;6.55;;
34914;SDS011;21125;48.630;9.276;2022-07-29T14:36:07;5.35;;;4.95;;
34914;SDS011;21125;48.630;9.276;2022-07-29T14:38:34;11.30;;;6.25;;
34914;SDS011;21125;48.630;9.276;2022-07-29T14:41:00;6.75;;;6.22;;
34914;SDS011;21125;48.630;9.276;2022-07-29T14:43:26;7.90;;;7.30;;
34914;SDS011;21125;48.630;9.276;2022-07-29T14:45:52;6.47;;;5.88;;
34914;SDS011;21125;48.630;9.276;2022-07-29T14:48:18;8.60;;;7.55;;
34914;SDS011;21125;48.630;9.276;2022-07-29T14:50:44;6.70;;;6.10;;
34914;SDS011;21125;48.630;9.276;2022-07-29T14:53:10;6.30;;;5.70;;
34914;SDS011;21125;48.630;9.276;2022-07-29T14:55:38;6.20;;;5.57;;
34914;SDS011;21125;48.630;9.276;2022-07-29T14:58:04;6.22;;;5.72;;
34914;SDS011;21125;48.630;9.276;2022-07-29T15:00:30;6.38;;;5.78;;
34914;SDS011;21125;48.630;9.276;2022-07-29T15:02:59;7.05;;;6.45;;
34914;SDS011;21125;48.630;9.276;2022-07-29T15:05:26;6.47;;;5.97;;
34914;SDS011;21125;48.630;9.276;2022-07-29T15:07:52;6.32;;;5.82;;
34914;SDS011;21125;48.630;9.276;2022-07-29T15:10:18;6.65;;;6.15;;
34914;SDS011;21125;48.630;9.276;2022-07-29T15:12:44;7.32;;;6.63;;
34914;SDS011;21125;48.630;9.276;2022-07-29T15:15:10;7.40;;;6.70;;
34914;SDS011;21125;48.630;9.276;2022-07-29T15:17:36;6.43;;;5.82;;
34914;SDS011;21125;48.630;9.276;2022-07-29T15:20:02;6.45;;;5.90;;
34914;SDS011;21125;48.630;9.276;2022-07-29T15:22:28;6.57;;;5.97;;
34914;SDS011;21125;48.630;9.276;2022-07-29T15:24:54;8.88;;;5.88;;
34914;SDS011;21125;48.630;9.276;2022-07-29T15:27:20;5.85;;;5.45;;
34914;SDS011;21125;48.630;9.276;2022-07-29T15:29:46;6.05;;;5.43;;
34914;SDS011;21125;48.630;9.276;2022-07-29T15:32:12;7.50;;;6.78;;